x

Settlement Point, Gbi (spgf1) Weather Station

6:00pm - Sat 27th Aug 2016 All times are EDT. -4 hours from GMT.

  • Wind
    18mph, 22mph gusts
  • Air Temp 82°f
  • Sea Pressure 1012.7mb
  • Settlement Point, Gbi
  • Settlement Point, Gbi

More Historic Weather Station data

Upgrade to MSW Pro to gain access to the past 30 days of data for over 8000 Wavebouys and Weather Stations around the globe.

Join Pro

Comparision Forecast

View Surf forecast
   
Sat 08/27 6:00pm 18 22 mph 1012.7mb 82f
5:00pm 16 18 mph 1012.7mb 85f
4:00pm 14 16 mph 1013.1mb 84f
3:00pm 13 14 mph 1013.8mb 85f
2:00pm 24 30 mph 1014.3mb 84f
1:00pm 22 25 mph 1014.9mb 83f
12:00pm 18 21 mph 1015mb 86f
11:00am 16 20 mph 1015mb 86f
10:00am 14 15 mph 1014.3mb 85f
9:00am 16 17 mph 1014.1mb 85f
8:00am 15 16 mph 1014mb 84f
7:00am 9 11 mph 1013.8mb 85f
6:00am 14 15 mph 1013.4mb 84f
5:00am 10 11 mph 1013.1mb 84f
4:00am 13
mph
1013.3mb 84f
3:00am 9 10 mph 1013.4mb 83f
2:00am 13 14 mph 1014.1mb 83f
1:00am 13 15 mph 1014.4mb 83f
12:00am 6 7 mph 1015.4mb 84f
Fri 08/26 11:00pm 7 8 mph 1015.9mb 82f
10:00pm 15
mph
1015.7mb 84f
9:00pm 14 17 mph 1014.6mb 81f
8:00pm 6
mph
1014.2mb 81f
7:00pm 3
mph
1013.9mb 79f
6:00pm 3 5 mph 1014mb 79f
5:00pm 11 14 mph 1013.3mb 84f
4:00pm 11 14 mph 1013.9mb 85f
3:00pm 16 18 mph 1014.3mb 85f
2:00pm 13 14 mph 1014.5mb 85f
1:00pm 13 14 mph 1015.1mb 84f
12:00pm 9 10 mph 1015.2mb 85f
11:00am 8 10 mph 1015.7mb 85f
10:00am 9 10 mph 1015.7mb 84f
9:00am 5
mph
1015.8mb 85f
8:00am 1
mph
1015.5mb 86f
7:00am 1 2 mph 1015.2mb 83f
6:00am 5
mph
1014.9mb 83f
5:00am 3 5 mph 1014.4mb 83f
4:00am 7 9 mph 1014mb 84f
3:00am 10 11 mph 1013.8mb 84f
2:00am 11 14 mph 1014.5mb 85f
1:00am 13 14 mph 1014.9mb 85f
12:00am 20 21 mph 1015mb 84f
Thu 08/25 11:00pm 8 10 mph 1015.2mb 84f
10:00pm 17 18 mph 1015.2mb 86f
9:00pm 18 21 mph 1014.8mb 85f
8:00pm 18 20 mph 1014.9mb 86f
7:00pm 23 26 mph 1014.4mb 86f
6:00pm 21 23 mph 1014.4mb 86f
5:00pm 18 21 mph 1014.5mb 86f
4:00pm 18 21 mph 1014.8mb 86f
3:00pm 18 21 mph 1015.1mb 86f
2:00pm 16 18 mph 1015.7mb 84f
1:00pm 10 11 mph 1016.4mb 85f
12:00pm 11 13 mph 1016.5mb 84f
11:00am 7 8 mph 1016.5mb 85f
10:00am 7
mph
1016.4mb 86f
9:00am 6 7 mph 1016.1mb 85f
8:00am 10 11 mph 1016.1mb 85f
7:00am 8 9 mph 1015.7mb 84f
6:00am 11 14 mph 1015.5mb 85f
5:00am 16 18 mph 1015mb 85f
4:00am 14 16 mph 1015.2mb 84f
3:00am 15 17 mph 1015.4mb 85f
2:00am 14 16 mph 1016.2mb 84f
1:00am 17 20 mph 1016.7mb 84f
12:00am 20 21 mph 1017.1mb 85f
Wed 08/24 11:00pm 17 18 mph 1017.7mb 85f
10:00pm 16 18 mph 1017.9mb 85f
9:00pm 21 23 mph 1017.4mb 85f
8:00pm 17 18 mph 1017mb 86f
7:00pm 15 17 mph 1016.6mb 86f
6:00pm 9 10 mph 1016.8mb 84f
5:00pm 15 16 mph 1016.9mb 83f
4:00pm 16 17 mph 1018mb 78f
3:00pm 11
mph
1017.8mb 87f
2:00pm 10
mph
1018mb 87f
1:00pm 7 8 mph 1018.5mb 86f
12:00pm 7
mph
1018.8mb 86f
11:00am 9 10 mph 1019mb 84f
10:00am 9 11 mph 1019mb 84f
9:00am 10
mph
1018.8mb 85f
8:00am 14 15 mph 1018.7mb 83f
7:00am 13 14 mph 1018.7mb 85f
6:00am 6 7 mph 1018.2mb 84f
5:00am 22 24 mph 1018.1mb 84f
4:00am 14 15 mph 1018.1mb 86f
3:00am 15 16 mph 1017.8mb 86f
2:00am 15 16 mph 1018.6mb 86f
1:00am 13 15 mph 1019.3mb 86f
12:00am 16 18 mph 1019.4mb 86f